Tiempo atmosférico en la estación meteorológica de Fregenal De La Sierra, Badajoz (586 m.)



Fecha
DESCASC
Temp. máxima en grados centígrados (hora)
DESCASC
Temp. mínima en grados centígrados (hora)
DESCASC
Temp. media en grados centígrados
DESCASC
Racha de viento máxima en m/sg (hora)
DESCASC
Velocidad máxima media en intervalos de 10 minutos(hora)
DESCASC
Precipitaciones diarias en mm
DESCASC
Precipitaciones de 00:00 a 06:00 en mm
DESCASC
Precipitaciones de 06:00 a 12:00 en mm
DESCASC
Precipitaciones de 12:00 a 18:00 en mm
DESCASC
Precipitaciones de 18:00 a 24:00 en mm
DESCASC
16-06-2019 29.2 (15:50) 7.7 (06:30) 18.5 6.67 (16:10) 3.33 (18:30) 0 0 0 0 0
15-06-2019 25.1 (18:20) 5.3 (07:20) 15.2 7.22 (15:00) 3.33 (18:00) 0 0 0 0 0
14-06-2019 20.3 (16:40) 5.6 (06:00) 12.9 9.17 (17:40) 4.72 (13:30) 0 0 0 0 0
13-06-2019 24.9 (17:00) 6 (00:00) 15.4 9.17 (18:20) 4.44 (19:30) 0 0 0 0 0
12-06-2019 27.2 (17:20) 7.1 (00:00) 17.2 8.61 (18:40) 4.17 (17:40) 0 0 0 0 0
11-06-2019 24 (17:50) 9.2 (00:00) 16.6 11.67 (18:10) 5.28 (18:00) 0 0 0 0 0
10-06-2019 25.6 (18:20) 10.1 (00:00) 17.9 10.83 (17:20) 5 (23:30) 0 0 0 0 0
09-06-2019 24.5 (18:00) 5.8 (00:00) 15.2 8.61 (16:10) 4.17 (09:20) 0 0 0 0 0
08-06-2019 27.8 (17:30) 4.9 (00:00) 16.3 8.06 (23:00) 4.72 (23:00) 0 0 0 0 0
07-06-2019 21.4 (18:20) 8.2 (00:00) 14.8 8.89 (01:50) 4.44 (11:30) 0.8 0.6 0 0.2 0
06-06-2019 22.5 (16:10) 3.8 (00:00) 13.1 10.28 (19:50) 4.44 (17:10) 0 0 0 0 0
05-06-2019 20.7 (18:20) 9.3 (00:00) 15 10.56 (01:30) 5 (00:10) 0 0 0 0 0
04-06-2019 24.4 (15:30) 11.6 (00:00) 18 11.11 (20:10) 6.11 (19:40) 0 0 0 0 0
03-06-2019 32.3 (16:50) 12.6 (00:00) 22.4 8.61 (18:30) 4.44 (21:20) 0 0 0 0 0
02-06-2019 34.2 (16:50) 12.7 (00:00) 23.5 6.39 (17:30) 3.06 (17:30) 0 0 0 0 0
01-06-2019 33.5 (17:30) 10.8 (00:00) 22.2 7.78 (14:40) 4.17 (14:30) 0 0 0 0 0
31-05-2019 32.8 (17:20) 13.5 (00:00) 23.1 10.28 (13:10) 5 (13:00) 0 0 0 0 0
30-05-2019 32.2 (16:30) 10.9 (00:00) 21.6 10 (12:50) 5 (12:20) 0 0 0 0 0
29-05-2019 29.8 (17:20) 15.9 (00:00) 22.8 9.44 (10:20) 5.83 (11:00) 0 0 0 0 0
28-05-2019 30.3 (16:30) 10.3 (00:00) 20.3 8.06 (17:00) 4.72 (18:20) 0 0 0 0 0
27-05-2019 30.6 (15:50) 11.1 (00:00) 20.9 9.17 (19:50) 4.72 (19:10) 0 0 0 0 0
26-05-2019 28.4 (18:00) 9.2 (00:00) 18.8 9.17 (18:10) 5 (18:10) 0 0 0 0 0
25-05-2019 25.8 (17:40) 11.8 (00:00) 18.8 8.89 (11:30) 4.72 (10:50) 0 0 0 0 0
24-05-2019 26 (17:40) 9 (00:00) 17.5 10 (16:30) 5 (15:30) 0 0 0 0 0
23-05-2019 27.3 (16:10) 9.7 (00:00) 18.5 8.06 (18:50) 4.17 (19:50) 0 0 0 0 0
22-05-2019 27.6 (18:50) 7.5 (00:00) 17.6 6.94 (00:30) 3.61 (00:40) 0 0 0 0 0

Gráficas

Temp. máximas Temp. mínimas Temp. medias Precipitaciones Rachas de viento máximas Velocidades máximas media en intervalos de 10 minutos

Datos horarios

Fecha y hora oficial Temperatura (ºC) Velocidad del viento (km/h) Dirección del viento Racha (km/h) Dirección de racha Precipitación (mm) Presión (hPa) Tendencia (hPa) Humedad (%)
2019-06-20 23:00:00 -- -- -- -- -- -- -- -- --
2019-06-20 22:00:00 -- -- -- -- -- -- -- -- --
2019-06-20 21:00:00 20.4 12 Noroeste 24 Oeste 0 -- -- 51
2019-06-20 20:00:00 23.5 13 Noroeste 29 Noroeste 0 -- -- 43
2019-06-20 19:00:00 24.4 9 Noroeste 28 Oeste 0 -- -- 40
2019-06-20 18:00:00 24.4 12 Noroeste 36 Noroeste 0 -- -- 40
2019-06-20 17:00:00 24.7 15 Noroeste 31 Oeste 0 -- -- 41
2019-06-20 16:00:00 24.6 11 Oeste 26 Oeste 0 -- -- 40
2019-06-20 15:00:00 23.9 12 Noroeste 24 Noroeste 0 -- -- 45
2019-06-20 14:00:00 22.7 14 Noroeste 28 Noroeste 0 -- -- 51
2019-06-20 13:00:00 21.9 12 Noroeste 26 Oeste 0 -- -- 56
2019-06-20 12:00:00 19.8 9 Noroeste 18 Noroeste 0 -- -- 63
2019-06-20 11:00:00 18.8 8 Norte 17 Noroeste 0 -- -- 68
2019-06-20 10:00:00 18.7 2 Norte 8 Noroeste 0 -- -- 72
2019-06-20 09:00:00 15.3 3 Sudeste 5 Sudeste 0 -- -- 85
2019-06-20 08:00:00 13.7 2 Sudeste 4 Sudeste 0 -- -- 91
2019-06-20 07:00:00 13.2 0 Calma 7 Oeste 0 -- -- 94
2019-06-20 06:00:00 13.5 0 Calma 7 Noroeste 0 -- -- 92
2019-06-20 05:00:00 13.4 0 Calma 8 Noroeste 0 -- -- 92
2019-06-20 04:00:00 13.7 3 Noroeste 8 Noroeste 0 -- -- 88
2019-06-20 03:00:00 14.5 3 Noroeste 17 Noroeste 0 -- -- 83
2019-06-20 02:00:00 15.4 8 Noroeste 20 Noroeste 0 -- -- 79
2019-06-20 01:00:00 16.5 10 Noroeste 22 Noroeste 0 -- -- 74
2019-06-20 00:00:00 17.3 7 Noroeste 13 Noroeste 0 -- -- 72
2019-06-19 23:00:00 18.6 9 Noroeste 16 Noroeste 0 -- -- 68
2019-06-19 22:00:00 20.2 6 Noroeste 17 Noroeste 0 -- -- 60
2019-06-19 21:00:00 22.4 10 Noroeste 22 Oeste 0 -- -- 53
2019-06-19 20:00:00 24 13 Noroeste 23 Noroeste 0 -- -- 49
2019-06-19 19:00:00 23.9 6 Noroeste 21 Noroeste 0 -- -- 46
2019-06-19 18:00:00 25.5 11 Oeste 21 Oeste 0 -- -- 42
2019-06-19 17:00:00 25 6 Noroeste 22 Noroeste 0 -- -- 44
2019-06-19 16:00:00 24 10 Oeste 20 Oeste 0 -- -- 47
2019-06-19 15:00:00 23.9 10 Oeste 22 Noroeste 0 -- -- 46
2019-06-19 14:00:00 22.4 8 Noroeste 20 Noroeste 0 -- -- 49
2019-06-19 13:00:00 21.4 9 Sur 18 Sur 0 -- -- 54
2019-06-19 12:00:00 20.1 7 Noroeste 18 Noroeste 0 -- -- 61
2019-06-19 11:00:00 19.3 5 Sudoeste 12 Sudoeste 0 -- -- 62
2019-06-19 10:00:00 17.1 4 Sur 11 Sur 0 -- -- 79
2019-06-19 09:00:00 15.2 6 Sudeste 11 Sur 0 -- -- 89
2019-06-19 08:00:00 14.5 4 Sudeste 6 Sur 0 -- -- 93
2019-06-19 07:00:00 13.8 0 Calma 14 Noroeste 0 -- -- 94
2019-06-19 06:00:00 12.1 3 Noroeste 5 Noroeste 0 -- -- 93
2019-06-19 05:00:00 12.6 0 Calma 8 Oeste 0 -- -- 91
2019-06-19 04:00:00 13.3 3 Noroeste 8 Oeste 0 -- -- 90
2019-06-19 03:00:00 14.4 3 Noroeste 8 Oeste 0 -- -- 84
2019-06-19 02:00:00 15.3 3 Noroeste 12 Oeste 0 -- -- 81
2019-06-19 01:00:00 16.2 5 Sudoeste 14 Sudoeste 0 -- -- 82
2019-06-19 00:00:00 16.5 2 Sur 11 Sudoeste 0 -- -- 79
2019-06-18 23:00:00 17.9 7 Sur 17 Sudoeste 0 -- -- 73
2019-06-18 22:00:00 19.4 8 Sur 19 Sudoeste -- -- -- 66
2019-06-18 21:00:00 20.8 8 Sudoeste 22 Sudoeste 0 -- -- 58
2019-06-18 20:00:00 23.3 5 Sudoeste 25 Sur 0 -- -- 51
2019-06-18 19:00:00 22.8 12 Sudoeste 36 Sur 0 -- -- 55
2019-06-18 18:00:00 23.1 9 Sudoeste 31 Sudoeste 0 -- -- 55
2019-06-18 17:00:00 23.2 10 Sudoeste 32 Sudoeste 0 -- -- 54
2019-06-18 16:00:00 24.3 12 Sudoeste 37 Oeste 0 -- -- 50
2019-06-18 15:00:00 24.1 17 Sudoeste 30 Sudoeste 0 -- -- 50
2019-06-18 14:00:00 22.2 9 Sudoeste 36 Oeste 0 -- -- 56
2019-06-18 13:00:00 23.1 10 Oeste 27 Oeste 0 -- -- 50
2019-06-18 12:00:00 21.6 9 Sudoeste 27 Sudoeste 0 -- -- 52
2019-06-18 11:00:00 19.7 10 Sudoeste 22 Sur 0 -- -- 50
2019-06-18 10:00:00 18.4 8 Sur 20 Sur 0 -- -- 41
2019-06-18 09:00:00 14.1 5 Sudeste 10 Sudeste 0 -- -- 64
2019-06-18 08:00:00 10.2 0 Calma 4 Oeste 0 -- -- 71
2019-06-18 07:00:00 10.3 0 Calma 11 Noroeste 0 -- -- 75
2019-06-18 06:00:00 9.4 7 Noroeste 13 Noroeste 0 -- -- 75
2019-06-18 05:00:00 9.4 3 Norte 5 Sur 0 -- -- 50
2019-06-18 04:00:00 11.2 0 Calma 4 Sur 0 -- -- 42
2019-06-18 03:00:00 15.9 4 Sur 14 Sur 0 -- -- 30
2019-06-18 02:00:00 16.2 5 Sudoeste 12 Sudoeste 0 -- -- 27
2019-06-18 01:00:00 16.4 0 Calma 8 Sudoeste 0 -- -- 35
2019-06-18 00:00:00 18.1 2 Noroeste 7 Sudoeste 0 -- -- 33
2019-06-17 23:00:00 20.3 5 Sur 13 Sudoeste 0 -- -- 30
2019-06-17 22:00:00 21.8 6 Sur 16 Sudoeste 0 -- -- 28
2019-06-17 21:00:00 23.8 8 Sudoeste 24 Sur 0 -- -- 26
2019-06-17 20:00:00 25.5 9 Sudoeste 28 Sudoeste 0 -- -- 25
2019-06-17 19:00:00 27.9 9 Sudoeste 30 Sur 0 -- -- 21
2019-06-17 18:00:00 28.7 9 Sudoeste 26 Sudoeste 0 -- -- 24
2019-06-17 17:00:00 28.9 10 Sudoeste 28 Sudoeste 0 -- -- 22
2019-06-17 16:00:00 28.4 11 Sur 30 Sudoeste 0 -- -- 24
2019-06-17 15:00:00 27.4 12 Sur 33 Sudoeste 0 -- -- 23
2019-06-17 14:00:00 27.3 10 Sur 27 Sudoeste 0 -- -- 19
2019-06-17 13:00:00 25.8 11 Sur 27 Sudeste 0 -- -- 26
2019-06-17 12:00:00 23.9 12 Sur 24 Sudeste 0 -- -- 30
2019-06-17 11:00:00 22.3 11 Sudeste 23 Sur 0 -- -- 34
2019-06-17 10:00:00 20.5 10 Sur 23 Sur 0 -- -- 38
2019-06-17 09:00:00 16.5 6 Sudeste 11 Sudeste 0 -- -- 51
2019-06-17 08:00:00 9.1 0 Calma 3 Norte 0 -- -- 84
2019-06-17 07:00:00 6.3 0 Calma 2 Noroeste 0 -- -- 88
2019-06-17 06:00:00 6.9 2 Noroeste 4 Noroeste 0 -- -- 86
2019-06-17 05:00:00 8.3 0 Calma 3 Norte 0 -- -- 80
2019-06-17 04:00:00 10.4 0 Calma 6 Noroeste 0 -- -- 74
2019-06-17 03:00:00 11.9 4 Oeste 7 Oeste 0 -- -- 65
2019-06-17 02:00:00 14.3 3 Sudoeste 9 Sudoeste 0 -- -- 58
2019-06-17 01:00:00 15.6 3 Norte 15 Sur 0 -- -- 49
2019-06-17 00:00:00 18 3 Sur 17 Sudoeste 0 -- -- 42
2019-06-16 23:00:00 19.1 4 Sur 12 Sudoeste 0 -- -- 35
2019-06-16 22:00:00 21.8 6 Sur 19 Sur 0 -- -- 31
2019-06-16 21:00:00 25.3 9 Sudoeste 21 Sur 0 -- -- 26
2019-06-16 20:00:00 27.6 8 Sudoeste 23 Oeste 0 -- -- 21
2019-06-16 19:00:00 28.5 10 Sur 23 Sudoeste 0 -- -- 21
2019-06-16 18:00:00 28.9 9 Sudoeste 23 Sudoeste 0 -- -- 21
2019-06-16 17:00:00 28.8 9 Sudoeste 24 Sudoeste 0 -- -- 21
2019-06-16 16:00:00 28.9 6 Oeste 24 Sur 0 -- -- 22
2019-06-16 15:00:00 28.5 9 Sur 23 Sur 0 -- -- 21
2019-06-16 14:00:00 26.4 5 Norte 20 Este 0 -- -- 26
2019-06-16 13:00:00 25 9 Sur 14 Sur 0 -- -- 29
2019-06-16 12:00:00 24.7 5 Este 14 Este 0 -- -- 33
2019-06-16 11:00:00 20.9 6 Este 14 Nordeste 0 -- -- 41
2019-06-16 10:00:00 18.2 3 Este 7 Nordeste 0 -- -- 52
2019-06-16 09:00:00 15.4 3 Nordeste 6 Nordeste 0 -- -- 62
2019-06-16 08:00:00 9.7 3 Noroeste 5 Noroeste 0 -- -- 82
2019-06-16 07:00:00 7.9 2 Noroeste 4 Noroeste 0 -- -- 84
2019-06-16 06:00:00 8 2 Noroeste 4 Noroeste 0 -- -- 82
2019-06-16 05:00:00 9 0 Calma 9 Noroeste 0 -- -- 75
2019-06-16 04:00:00 10.1 5 Noroeste 9 Noroeste 0 -- -- 67
2019-06-16 03:00:00 11.9 6 Noroeste 12 Norte 0 -- -- 57
2019-06-16 02:00:00 10.6 4 Noroeste 5 Noroeste 0 -- -- 61
2019-06-16 01:00:00 11.3 4 Noroeste 5 Noroeste 0 -- -- 58
2019-06-16 00:00:00 13.6 3 Noroeste 7 Noroeste 0 -- -- 51
2019-06-15 23:00:00 16.4 5 Noroeste 9 Noroeste 0 -- -- 43
2019-06-15 22:00:00 19.8 5 Noroeste 20 Norte 0 -- -- 36
2019-06-15 21:00:00 22.9 9 Norte 17 Norte 0 -- -- 31
2019-06-15 20:00:00 24.4 9 Noroeste 18 Noroeste 0 -- -- 28
2019-06-15 19:00:00 25 9 Noroeste 21 Noroeste 0 -- -- 27
2019-06-15 18:00:00 24.6 12 Norte 21 Noroeste 0 -- -- 27
2019-06-15 17:00:00 24.4 11 Noroeste 23 Noroeste 0 -- -- 27
2019-06-15 16:00:00 23.8 9 Norte 23 Oeste 0 -- -- 32
2019-06-15 15:00:00 22.8 7 Nordeste 26 Oeste 0 -- -- 35
2019-06-15 14:00:00 21.2 8 Noroeste 20 Norte 0 -- -- 37
2019-06-15 13:00:00 20 5 Noroeste 19 Noroeste 0 -- -- 38
2019-06-15 12:00:00 18.4 10 Noroeste 16 Noroeste 0 -- -- 44
2019-06-15 11:00:00 17.4 6 Nordeste 17 Norte 0 -- -- 51
2019-06-15 10:00:00 15.3 6 Norte 13 Nordeste 0 -- -- 58
2019-06-15 09:00:00 11.9 3 Sudeste 10 Nordeste 0 -- -- 80
2019-06-15 08:00:00 7 0 Calma 4 Noroeste 0 -- -- 94
2019-06-15 07:00:00 5.8 3 Noroeste 5 Noroeste 0 -- -- 94
2019-06-15 06:00:00 6.3 3 Noroeste 6 Noroeste 0 -- -- 91
2019-06-15 05:00:00 7.9 4 Noroeste 8 Oeste 0 -- -- 88
2019-06-15 04:00:00 8.4 0 Calma 5 Oeste 0 -- -- 85
2019-06-15 03:00:00 9.9 2 Sudeste 11 Oeste 0 -- -- 77
2019-06-15 02:00:00 11.4 4 Noroeste 17 Noroeste 0 -- -- 71
2019-06-15 01:00:00 11.9 6 Noroeste 14 Noroeste 0 -- -- 66
2019-06-15 00:00:00 12.8 9 Noroeste 14 Noroeste 0 -- -- 61
2019-06-14 23:00:00 13.2 4 Noroeste 12 Noroeste 0 -- -- 59
2019-06-14 22:00:00 15.3 8 Noroeste 20 Noroeste 0 -- -- 53
2019-06-14 21:00:00 17.3 11 Noroeste 27 Norte 0 -- -- 47
2019-06-14 20:00:00 18.2 12 Noroeste 23 Noroeste 0 -- -- 43
2019-06-14 19:00:00 19 13 Noroeste 27 Noroeste 0 -- -- 40
2019-06-14 18:00:00 19.5 11 Noroeste 33 Sudoeste 0 -- -- 40
2019-06-14 17:00:00 18.8 14 Noroeste 32 Noroeste 0 -- -- 40
2019-06-14 16:00:00 18.9 12 Noroeste 29 Noroeste 0 -- -- 40
2019-06-14 15:00:00 17.5 16 Noroeste 30 Oeste 0 -- -- 44
2019-06-14 14:00:00 16.9 11 Noroeste 32 Noroeste 0 -- -- 46
2019-06-14 13:00:00 16.3 14 Noroeste 31 Noroeste 0 -- -- 48
2019-06-14 12:00:00 16 13 Oeste 30 Noroeste 0 -- -- 52
2019-06-14 11:00:00 14.5 14 Noroeste 26 Noroeste 0 -- -- 51
2019-06-14 10:00:00 13 10 Noroeste 20 Norte 0 -- -- 63
2019-06-14 09:00:00 10.5 3 Oeste 12 Noroeste 0 -- -- 82
2019-06-14 08:00:00 8.4 6 Noroeste 12 Noroeste 0 -- -- 91
2019-06-14 07:00:00 6.8 4 Oeste 8 Noroeste 0 -- -- 92
2019-06-14 06:00:00 5.6 0 Calma 5 Norte 0 -- -- 87
2019-06-14 05:00:00 6.7 0 Calma 4 Sudeste 0 -- -- 83
2019-06-14 04:00:00 7.4 2 Noroeste 5 Oeste 0 -- -- 77
2019-06-14 03:00:00 9.1 0 Calma 9 Norte 0 -- -- 72
2019-06-14 02:00:00 11.2 5 Oeste 10 Noroeste 0 -- -- 62
2019-06-14 01:00:00 13.4 5 Noroeste 20 Noroeste 0 -- -- 55
2019-06-14 00:00:00 15.4 12 Noroeste 26 Noroeste 0 -- -- 48
2019-06-13 23:00:00 16.7 7 Oeste 16 Oeste 0 -- -- 40
2019-06-13 22:00:00 18.4 6 Oeste 14 Oeste 0 -- -- 35
2019-06-13 21:00:00 20.5 6 Noroeste 25 Oeste 0 -- -- 32
2019-06-13 20:00:00 22.2 13 Oeste 32 Oeste 0 -- -- 30
2019-06-13 19:00:00 23.8 14 Noroeste 33 Oeste 0 -- -- 27
2019-06-13 18:00:00 23.2 12 Oeste 29 Oeste 0 -- -- 27
2019-06-13 17:00:00 24.9 12 Oeste 30 Noroeste 0 -- -- 27
2019-06-13 16:00:00 24.3 14 Oeste 28 Oeste 0 -- -- 30
2019-06-13 15:00:00 24.2 12 Oeste 24 Sudoeste 0 -- -- 32
2019-06-13 14:00:00 23.7 6 Sudoeste 25 Sudoeste 0 -- -- 30
2019-06-13 13:00:00 22.4 7 Sudoeste 26 Oeste 0 -- -- 29
2019-06-13 12:00:00 21.3 9 Sur 19 Sur 0 -- -- 25
2019-06-13 11:00:00 19.2 5 Sur 11 Sudeste 0 -- -- 33
2019-06-13 10:00:00 15.3 5 Sudeste 10 Sur 0 -- -- 48
2019-06-13 09:00:00 10.5 5 Sudeste 8 Sudeste 0 -- -- 65
2019-06-13 08:00:00 7.5 0 Calma 8 Oeste 0 -- -- 73
2019-06-13 07:00:00 6 3 Sudoeste 6 Oeste 0 -- -- 79
2019-06-13 06:00:00 7.4 0 Calma 9 Noroeste 0 -- -- 71
2019-06-13 05:00:00 8 5 Noroeste 9 Oeste 0 -- -- 69
2019-06-13 04:00:00 8.7 3 Noroeste 7 Oeste 0 -- -- 61
2019-06-13 03:00:00 11 2 Oeste 15 Noroeste 0 -- -- 52
2019-06-13 02:00:00 12 3 Noroeste 10 Norte 0 -- -- 54
2019-06-13 01:00:00 14.2 2 Norte 18 Noroeste 0 -- -- 49
2019-06-13 00:00:00 16.7 10 Noroeste 26 Noroeste 0 -- -- 41
2019-06-12 23:00:00 18.5 11 Noroeste 22 Norte 0 -- -- 26
2019-06-12 22:00:00 20.8 7 Noroeste 21 Noroeste 0 -- -- 23
2019-06-12 21:00:00 24.1 10 Noroeste 23 Noroeste 0 -- -- 22
2019-06-12 20:00:00 25.9 8 Noroeste 27 Noroeste 0 -- -- 20
2019-06-12 19:00:00 26.6 9 Noroeste 31 Noroeste 0 -- -- 18
2019-06-12 18:00:00 26.7 12 Noroeste 30 Noroeste 0 -- -- 18
2019-06-12 17:00:00 27 12 Oeste 26 Oeste 0 -- -- 18
2019-06-12 16:00:00 26.7 6 Sur 23 Noroeste 0 -- -- 19
2019-06-12 15:00:00 25.9 6 Norte 22 Oeste 0 -- -- 22
2019-06-12 14:00:00 25 9 Norte 23 Noroeste 0 -- -- 22
2019-06-12 13:00:00 24.1 7 Noroeste 23 Norte 0 -- -- 24
2019-06-12 12:00:00 22.9 5 Nordeste 12 Norte 0 -- -- 25
2019-06-12 11:00:00 21.7 4 Norte 10 Nordeste 0 -- -- 26
2019-06-12 10:00:00 19.8 6 Este 15 Este 0 -- -- 27
2019-06-12 09:00:00 15.6 3 Nordeste 7 Norte 0 -- -- 33
2019-06-12 08:00:00 9.3 0 Calma 6 Norte 0 -- -- 54
2019-06-12 07:00:00 7.1 4 Norte 8 Noroeste 0 -- -- 52
2019-06-12 06:00:00 10.9 8 Noroeste 13 Noroeste 0 -- -- 38
2019-06-12 05:00:00 12.3 9 Norte 12 Noroeste 0 -- -- 35
2019-06-12 04:00:00 12.9 8 Norte 13 Norte 0 -- -- 33
2019-06-12 03:00:00 14 8 Norte 15 Norte 0 -- -- 32
2019-06-12 02:00:00 14.5 10 Norte 16 Norte 0 -- -- 30
2019-06-12 01:00:00 14.8 9 Norte 13 Noroeste 0 -- -- 30
2019-06-12 00:00:00 14.6 9 Noroeste 13 Noroeste 0 -- -- 30
2019-06-11 23:00:00 16.1 8 Norte 13 Norte 0 -- -- 29
2019-06-11 22:00:00 18.8 9 Norte 24 Norte 0 -- -- 27
2019-06-11 21:00:00 21.5 15 Norte 30 Norte 0 -- -- 27
2019-06-11 20:00:00 22.8 13 Norte 27 Norte 0 -- -- 23
2019-06-11 19:00:00 23.5 13 Norte 42 Norte 0 -- -- 21
2019-06-11 18:00:00 23.7 19 Norte 37 Noroeste 0 -- -- 25
2019-06-11 17:00:00 23.6 16 Norte 33 Norte 0 -- -- 28
2019-06-11 16:00:00 23.4 17 Norte 37 Noroeste 0 -- -- 30
2019-06-11 15:00:00 22.8 16 Norte 35 Norte 0 -- -- 36
2019-06-11 14:00:00 22.2 14 Norte 37 Noroeste 0 -- -- 40
2019-06-11 13:00:00 20.7 15 Norte 30 Noroeste 0 -- -- 45
2019-06-11 12:00:00 18.7 14 Norte 28 Noroeste 0 -- -- 50
2019-06-11 11:00:00 17 9 Norte 21 Noroeste 0 -- -- 53
2019-06-11 10:00:00 14.6 12 Noroeste 19 Oeste 0 -- -- 60
2019-06-11 09:00:00 11.8 10 Noroeste 24 Noroeste 0 -- -- 70
2019-06-11 08:00:00 10.1 14 Noroeste 24 Noroeste 0 -- -- 76
2019-06-11 07:00:00 9.3 15 Noroeste 27 Noroeste 0 -- -- 77
2019-06-11 06:00:00 9.3 10 Noroeste 24 Noroeste 0 -- -- 76
2019-06-11 05:00:00 9.9 12 Noroeste 22 Noroeste 0 -- -- 72
2019-06-11 04:00:00 10.4 2 Noroeste 16 Oeste 0 -- -- 67
2019-06-11 03:00:00 11.4 7 Noroeste 27 Noroeste 0 -- -- 62
2019-06-11 02:00:00 12.7 10 Noroeste 21 Noroeste 0 -- -- 55
2019-06-11 01:00:00 14.3 14 Noroeste 29 Noroeste 0 -- -- 46
2019-06-11 00:00:00 16 14 Noroeste 36 Noroeste 0 -- -- 42
2019-06-10 23:00:00 18 13 Noroeste 25 Norte 0 -- -- 38
2019-06-10 22:00:00 20 8 Noroeste 24 Noroeste 0 -- -- 34
2019-06-10 21:00:00 22.6 13 Noroeste 25 Norte 0 -- -- 31
2019-06-10 20:00:00 24.4 10 Noroeste 25 Noroeste 0 -- -- 27
2019-06-10 19:00:00 25 14 Norte 28 Noroeste 0 -- -- 27
2019-06-10 18:00:00 25.5 13 Noroeste 39 Noroeste 0 -- -- 27
2019-06-10 17:00:00 24.9 13 Norte 24 Noroeste 0 -- -- 28
2019-06-10 16:00:00 24.1 9 Noroeste 28 Noroeste 0 -- -- 31
2019-06-10 15:00:00 23.5 15 Noroeste 26 Noroeste 0 -- -- 34
2019-06-10 14:00:00 22.2 10 Noroeste 25 Noroeste 0 -- -- 40
2019-06-10 13:00:00 20.8 11 Norte 30 Norte 0 -- -- 45
2019-06-10 12:00:00 19.6 12 Norte 24 Norte 0 -- -- 47
2019-06-10 11:00:00 18.4 8 Noroeste 18 Noroeste 0 -- -- 52
2019-06-10 10:00:00 16.2 6 Norte 17 Noroeste 0 -- -- 59
2019-06-10 09:00:00 13.8 8 Noroeste 15 Noroeste 0 -- -- 65
2019-06-10 08:00:00 11.4 4 Noroeste 19 Noroeste 0 -- -- 80
2019-06-10 07:00:00 10.3 10 Noroeste 20 Noroeste 0 -- -- 84
2019-06-10 06:00:00 10.6 9 Noroeste 19 Noroeste 0 -- -- 83
2019-06-10 05:00:00 10.9 2 Este 18 Noroeste 0 -- -- 81
2019-06-10 04:00:00 11.4 7 Noroeste 16 Noroeste 0 -- -- 80
2019-06-10 03:00:00 12.4 8 Norte 22 Noroeste 0 -- -- 75
2019-06-10 02:00:00 13.5 13 Noroeste 22 Noroeste 0 -- -- 70
2019-06-10 01:00:00 14.6 7 Noroeste 24 Noroeste 0 -- -- 62
2019-06-10 00:00:00 15.9 11 Noroeste 28 Noroeste 0 -- -- 55
2019-06-09 23:00:00 17 9 Noroeste 18 Noroeste 0 -- -- 49
2019-06-09 22:00:00 18.6 9 Noroeste 28 Noroeste 0 -- -- 45
2019-06-09 21:00:00 20.9 11 Noroeste 25 Noroeste 0 -- -- 40
2019-06-09 20:00:00 22.8 13 Noroeste 30 Noroeste 0 -- -- 35
2019-06-09 19:00:00 23.9 13 Noroeste 30 Noroeste 0 -- -- 33
2019-06-09 18:00:00 24.5 12 Noroeste 28 Oeste 0 -- -- 31
2019-06-09 17:00:00 24.2 10 Noroeste 31 Noroeste 0 -- -- 31
2019-06-09 16:00:00 23.4 12 Noroeste 27 Noroeste 0 -- -- 31
2019-06-09 15:00:00 22.7 13 Noroeste 26 Noroeste 0 -- -- 29
2019-06-09 14:00:00 21.7 13 Noroeste 27 Noroeste 0 -- -- 29
2019-06-09 13:00:00 20.4 7 Oeste 23 Norte 0 -- -- 31
2019-06-09 12:00:00 19.7 9 Noroeste 22 Oeste 0 -- -- 30
2019-06-09 11:00:00 17.8 8 Noroeste 16 Noroeste 0 -- -- 30
2019-06-09 10:00:00 15 9 Norte 30 Noroeste 0 -- -- 36
2019-06-09 09:00:00 12.6 12 Noroeste 23 Noroeste 0 -- -- 49
2019-06-09 08:00:00 9.8 6 Noroeste 15 Noroeste 0 -- -- 68
2019-06-09 07:00:00 6.9 2 Oeste 11 Noroeste 0 -- -- 65
2019-06-09 06:00:00 6.2 0 Calma 6 Noroeste 0 -- -- 60
2019-06-09 05:00:00 8.8 0 Calma 5 Sudoeste 0 -- -- 52
2019-06-09 04:00:00 11.5 3 Noroeste 19 Noroeste 0 -- -- 46
2019-06-09 03:00:00 12.3 8 Noroeste 20 Noroeste 0 -- -- 53
2019-06-09 02:00:00 12.9 8 Noroeste 16 Noroeste 0 -- -- 62
2019-06-09 01:00:00 14.5 7 Noroeste 12 Noroeste 0 -- -- 58
2019-06-09 00:00:00 16.9 2 Norte 24 Noroeste 0 -- -- 49
2019-06-08 23:00:00 19 17 Noroeste 29 Noroeste 0 -- -- 39
2019-06-08 22:00:00 19.9 8 Noroeste 12 Noroeste 0 -- -- 29
2019-06-08 21:00:00 22.7 8 Noroeste 22 Noroeste 0 -- -- 24
2019-06-08 20:00:00 24.5 9 Noroeste 22 Noroeste 0 -- -- 23
2019-06-08 19:00:00 27.2 11 Oeste 25 Oeste 0 -- -- 20
2019-06-08 18:00:00 27.2 11 Noroeste 28 Noroeste 0 -- -- 23
2019-06-08 17:00:00 27 6 Sur 24 Sur 0 -- -- 23
2019-06-08 16:00:00 27 5 Sur 22 Oeste 0 -- -- 23
2019-06-08 15:00:00 25.9 9 Noroeste 19 Noroeste 0 -- -- 24
2019-06-08 14:00:00 24.4 6 Noroeste 24 Noroeste 0 -- -- 26
2019-06-08 13:00:00 23.9 7 Norte 18 Noroeste 0 -- -- 26
2019-06-08 12:00:00 22.1 5 Sudoeste 15 Nordeste 0 -- -- 29
2019-06-08 11:00:00 20.8 7 Este 17 Nordeste 0 -- -- 32
2019-06-08 10:00:00 18.8 7 Este 13 Este 0 -- -- 40
2019-06-08 09:00:00 13.8 2 Este 6 Este 0 -- -- 57
2019-06-08 08:00:00 7.2 0 Calma 4 Nordeste 0 -- -- 84
2019-06-08 07:00:00 5.1 2 Noroeste 5 Noroeste 0 -- -- 84
2019-06-08 06:00:00 6.5 3 Noroeste 6 Noroeste 0 -- -- 79
2019-06-08 05:00:00 8 4 Noroeste 9 Noroeste 0 -- -- 74
2019-06-08 04:00:00 9.8 7 Noroeste 12 Norte 0 -- -- 68
2019-06-08 03:00:00 11.3 8 Norte 17 Norte 0 -- -- 62
2019-06-08 02:00:00 11.4 10 Norte 14 Norte 0 -- -- 59
2019-06-08 01:00:00 11.6 9 Norte 12 Noroeste 0 -- -- 55
2019-06-08 00:00:00 11.5 6 Noroeste 11 Noroeste 0 -- -- 54
2019-06-07 23:00:00 12.8 5 Noroeste 11 Noroeste 0 -- -- 51
2019-06-07 22:00:00 16.1 5 Noroeste 15 Noroeste 0 -- -- 41
2019-06-07 21:00:00 19.2 10 Norte 18 Norte 0 -- -- 34
2019-06-07 20:00:00 20.3 9 Norte 23 Norte 0 -- -- 31
2019-06-07 19:00:00 20.8 7 Nordeste 22 Norte 0 -- -- 32
2019-06-07 18:00:00 21 10 Norte 23 Este 0 -- -- 31
2019-06-07 17:00:00 20.4 12 Norte 26 Noroeste 0 -- -- 34
2019-06-07 16:00:00 19.7 10 Norte 27 Norte 0 -- -- 34
2019-06-07 15:00:00 19 9 Norte 27 Noroeste 0 -- -- 37
2019-06-07 14:00:00 17.9 15 Nordeste 26 Norte 0 -- -- 37
2019-06-07 13:00:00 16.7 13 Norte 32 Nordeste 0.2 -- -- 45
2019-06-07 12:00:00 15.1 14 Nordeste 29 Noroeste 0 -- -- 51
2019-06-07 11:00:00 13.3 12 Norte 25 Noroeste 0 -- -- 65
2019-06-07 10:00:00 11.7 13 Norte 26 Norte 0 -- -- 82
2019-06-07 09:00:00 10.1 14 Norte 25 Norte 0 -- -- 90
2019-06-07 08:00:00 8.8 6 Norte 13 Noroeste 0 -- -- 96
2019-06-07 07:00:00 8.2 5 Norte 10 Noroeste 0 -- -- 95
2019-06-07 06:00:00 8.8 4 Noroeste 15 Noroeste 0 -- -- 94
2019-06-07 05:00:00 9.7 6 Noroeste 15 Noroeste 0 -- -- 94
2019-06-07 04:00:00 10.1 7 Noroeste 22 Noroeste 0 -- -- 95
2019-06-07 03:00:00 10.2 11 Noroeste 29 Noroeste 0.2 -- -- 94
2019-06-07 02:00:00 11.7 14 Noroeste 32 Noroeste 0.4 -- -- 92
2019-06-07 01:00:00 14 10 Oeste 29 Oeste 0 -- -- 82
2019-06-07 00:00:00 14.8 5 Oeste 24 Sudoeste 0 -- -- 71
2019-06-06 23:00:00 15.1 9 Oeste 32 Oeste 0 -- -- 67
2019-06-06 22:00:00 16 9 Oeste 28 Noroeste 0 -- -- 62
2019-06-06 21:00:00 18.4 11 Oeste 36 Noroeste 0 -- -- 50
2019-06-06 20:00:00 20.6 14 Noroeste 37 Oeste 0 -- -- 43
2019-06-06 19:00:00 21.9 12 Oeste 31 Oeste 0 -- -- 38
2019-06-06 18:00:00 21.9 9 Sudoeste 30 Noroeste 0 -- -- 38
2019-06-06 17:00:00 22.2 10 Oeste 34 Oeste 0 -- -- 34
2019-06-06 16:00:00 22.3 9 Sudoeste 28 Sudoeste 0 -- -- 28
2019-06-06 15:00:00 21.1 5 Oeste 20 Sur 0 -- -- 33
2019-06-06 14:00:00 19.9 10 Oeste 22 Sudoeste 0 -- -- 31
2019-06-06 13:00:00 18.9 12 Noroeste 23 Oeste 0 -- -- 37
2019-06-06 12:00:00 17.4 5 Nordeste 15 Noroeste 0 -- -- 41
2019-06-06 11:00:00 15.9 6 Noroeste 13 Nordeste 0 -- -- 44
2019-06-06 10:00:00 14 3 Norte 11 Nordeste 0 -- -- 51
2019-06-06 09:00:00 10.3 3 Sudeste 5 Este 0 -- -- 69
2019-06-06 08:00:00 5.3 2 Noroeste 4 Noroeste 0 -- -- 88
2019-06-06 07:00:00 4 3 Noroeste 4 Noroeste 0 -- -- 87
2019-06-06 06:00:00 6 0 Calma 13 Noroeste 0 -- -- 79
2019-06-06 05:00:00 8.2 9 Noroeste 16 Noroeste 0 -- -- 72
2019-06-06 04:00:00 8 6 Noroeste 15 Noroeste 0 -- -- 73
2019-06-06 03:00:00 9.4 0 Calma 13 Noroeste 0 -- -- 64
2019-06-06 02:00:00 10.5 8 Noroeste 15 Norte 0 -- -- 60
2019-06-06 01:00:00 11.9 9 Norte 21 Noroeste 0 -- -- 54
2019-06-06 00:00:00 13.1 10 Noroeste 19 Noroeste 0 -- -- 43
2019-06-05 23:00:00 14 9 Noroeste 18 Noroeste 0 -- -- 44
2019-06-05 22:00:00 15.8 7 Noroeste 19 Noroeste 0 -- -- 39
2019-06-05 21:00:00 18.1 10 Noroeste 24 Oeste 0 -- -- 35
2019-06-05 20:00:00 19.3 12 Noroeste 26 Noroeste 0 -- -- 35
2019-06-05 19:00:00 20.3 14 Noroeste 27 Noroeste 0 -- -- 35
2019-06-05 18:00:00 20.1 11 Noroeste 32 Norte 0 -- -- 36
2019-06-05 17:00:00 19.4 16 Noroeste 34 Noroeste 0 -- -- 38
2019-06-05 16:00:00 18.6 16 Noroeste 33 Noroeste 0 -- -- 41
2019-06-05 15:00:00 19.3 14 Noroeste 32 Noroeste 0 -- -- 41
2019-06-05 14:00:00 17.3 17 Noroeste 31 Noroeste 0 -- -- 45
2019-06-05 13:00:00 17.1 16 Noroeste 35 Norte 0 -- -- 48
2019-06-05 12:00:00 15.7 17 Noroeste 35 Noroeste 0 -- -- 53
2019-06-05 11:00:00 14.1 14 Noroeste 30 Noroeste 0 -- -- 61
2019-06-05 10:00:00 12.5 13 Noroeste 27 Noroeste 0 -- -- 73
2019-06-05 09:00:00 11.3 9 Noroeste 22 Noroeste 0 -- -- 80
2019-06-05 08:00:00 9.6 14 Norte 26 Norte 0 -- -- 87
2019-06-05 07:00:00 9.7 14 Noroeste 27 Norte 0 -- -- 89
2019-06-05 06:00:00 9.6 12 Noroeste 25 Noroeste 0 -- -- 90
2019-06-05 05:00:00 9.3 10 Noroeste 22 Noroeste 0 -- -- 88
2019-06-05 04:00:00 9.9 14 Noroeste 28 Noroeste 0 -- -- 82
2019-06-05 03:00:00 10.5 12 Noroeste 29 Noroeste 0 -- -- 75
2019-06-05 02:00:00 11.8 15 Noroeste 38 Noroeste 0 -- -- 69
2019-06-05 01:00:00 13 14 Noroeste 36 Noroeste 0 -- -- 60
2019-06-05 00:00:00 14.9 13 Noroeste 26 Noroeste 0 -- -- 60
2019-06-04 23:00:00 15.3 7 Noroeste 28 Noroeste 0 -- -- 68
2019-06-04 22:00:00 16.5 9 Noroeste 25 Noroeste 0 -- -- 68
2019-06-04 21:00:00 17.2 12 Noroeste 40 Noroeste 0 -- -- 68
2019-06-04 20:00:00 18.7 21 Noroeste 39 Noroeste 0 -- -- 68
2019-06-04 19:00:00 22.4 14 Noroeste 32 Noroeste 0 -- -- 48
2019-06-04 18:00:00 23.6 15 Noroeste 39 Noroeste 0 -- -- 46
2019-06-04 17:00:00 24.4 15 Noroeste 28 Noroeste 0 -- -- 47
2019-06-04 16:00:00 24 12 Noroeste 33 Oeste 0 -- -- 47
2019-06-04 15:00:00 23.7 10 Oeste 23 Oeste 0 -- -- 47
2019-06-04 14:00:00 22.9 9 Noroeste 24 Norte 0 -- -- 51
2019-06-04 13:00:00 22.2 8 Oeste 20 Noroeste 0 -- -- 52
2019-06-04 12:00:00 20.1 8 Norte 21 Noroeste 0 -- -- 60
2019-06-04 11:00:00 18.3 7 Noroeste 16 Noroeste 0 -- -- 66
2019-06-04 10:00:00 15.1 8 Norte 18 Noroeste 0 -- -- 80
2019-06-04 09:00:00 15 9 Noroeste 17 Noroeste 0 -- -- 84
2019-06-04 08:00:00 14.1 8 Noroeste 16 Norte 0 -- -- 90
2019-06-04 07:00:00 13.9 5 Noroeste 13 Noroeste 0 -- -- 93
2019-06-04 06:00:00 12.9 3 Noroeste 8 Noroeste 0 -- -- 94
2019-06-04 05:00:00 12.1 0 Calma 2 Sur 0 -- -- 87
2019-06-04 04:00:00 13.5 0 Calma 4 Noroeste 0 -- -- 79
2019-06-04 03:00:00 15.4 4 Noroeste 13 Noroeste 0 -- -- 69
2019-06-04 02:00:00 16.9 7 Oeste 14 Noroeste 0 -- -- 58
2019-06-04 01:00:00 17.4 2 Nordeste 5 Oeste 0 -- -- 46
2019-06-04 00:00:00 19.5 2 Sudeste 17 Noroeste 0 -- -- 40
2019-06-03 23:00:00 22.2 8 Noroeste 21 Noroeste 0 -- -- 34
2019-06-03 22:00:00 24.6 11 Noroeste 30 Noroeste 0 -- -- 28
2019-06-03 21:00:00 28.1 9 Noroeste 28 Noroeste 0 -- -- 26
2019-06-03 20:00:00 30.1 11 Oeste 28 Oeste 0 -- -- 22
2019-06-03 19:00:00 31.3 11 Oeste 31 Noroeste 0 -- -- 20
2019-06-03 18:00:00 31.8 12 Oeste 26 Noroeste 0 -- -- 20
2019-06-03 17:00:00 32.2 10 Oeste 23 Oeste 0 -- -- 19
2019-06-03 16:00:00 31.8 8 Noroeste 23 Oeste 0 -- -- 21
2019-06-03 15:00:00 31.4 9 Sudoeste 23 Sudoeste 0 -- -- 20
2019-06-03 14:00:00 30.8 10 Noroeste 17 Noroeste 0 -- -- 21
2019-06-03 13:00:00 30 5 Sudoeste 16 Oeste 0 -- -- 21
2019-06-03 12:00:00 28.2 7 Noroeste 14 Noroeste 0 -- -- 22
2019-06-03 11:00:00 26.1 7 Norte 14 Norte 0 -- -- 27
2019-06-03 10:00:00 24.2 11 Norte 17 Norte 0 -- -- 31
2019-06-03 09:00:00 18.3 2 Norte 8 Noroeste 0 -- -- 57
2019-06-03 08:00:00 14.1 0 Calma 5 Noroeste 0 -- -- 62
2019-06-03 07:00:00 12.8 5 Noroeste 8 Oeste 0 -- -- 61
2019-06-03 06:00:00 13.1 0 Calma 4 Noroeste 0 -- -- 57
2019-06-03 05:00:00 15.1 2 Norte 8 Sur 0 -- -- 50
2019-06-03 04:00:00 17.4 3 Norte 12 Norte 0 -- -- 44
2019-06-03 03:00:00 17.5 0 Calma 9 Noroeste 0 -- -- 45
2019-06-03 02:00:00 20.7 4 Norte 15 Oeste 0 -- -- 37
2019-06-03 01:00:00 21.4 12 Noroeste 19 Noroeste 0 -- -- 35
2019-06-03 00:00:00 21 7 Oeste 12 Oeste 0 -- -- 36
2019-06-02 23:00:00 24.4 3 Norte 15 Noroeste 0 -- -- 31
2019-06-02 22:00:00 26.9 10 Noroeste 17 Noroeste 0 -- -- 31
2019-06-02 21:00:00 29.9 4 Sudoeste 12 Noroeste 0 -- -- 26
2019-06-02 20:00:00 32.9 5 Noroeste 19 Noroeste 0 -- -- 23
2019-06-02 19:00:00 33.4 9 Noroeste 22 Oeste 0 -- -- 22
2019-06-02 18:00:00 33.6 10 Noroeste 23 Noroeste 0 -- -- 22
2019-06-02 17:00:00 33.9 5 Oeste 16 Oeste 0 -- -- 22
2019-06-02 16:00:00 33.4 5 Noroeste 21 Sudeste 0 -- -- 22
2019-06-02 15:00:00 32.7 9 Sudeste 15 Sudeste 0 -- -- 23
2019-06-02 14:00:00 31.6 5 Oeste 15 Noroeste 0 -- -- 26
2019-06-02 13:00:00 30.5 6 Sudeste 14 Sudoeste 0 -- -- 27
2019-06-02 12:00:00 29.1 5 Sudeste 13 Sudoeste 0 -- -- 29
2019-06-02 11:00:00 26.9 6 Sudoeste 15 Sudoeste 0 -- -- 34
2019-06-02 10:00:00 24.2 4 Oeste 12 Noroeste 0 -- -- 36
2019-06-02 09:00:00 19.1 2 Este 5 Sudeste 0 -- -- 52
2019-06-02 08:00:00 14.5 0 Calma 4 Sudoeste 0 -- -- 65
2019-06-02 07:00:00 12.8 3 Oeste 8 Oeste 0 -- -- 66
2019-06-02 06:00:00 13.1 3 Norte 5 Norte 0 -- -- 65
2019-06-02 05:00:00 13.8 0 Calma 8 Sudoeste 0 -- -- 62
2019-06-02 04:00:00 15.3 5 Sudeste 8 Sudeste 0 -- -- 57
2019-06-02 03:00:00 16.3 0 Calma 12 Sudoeste 0 -- -- 54
2019-06-02 02:00:00 18 2 Noroeste 10 Sur 0 -- -- 48
2019-06-02 01:00:00 20.9 0 Calma 21 Noroeste 0 -- -- 40
2019-06-02 00:00:00 21.5 6 Noroeste 20 Oeste 0 -- -- 36
2019-06-01 23:00:00 23.5 4 Oeste 10 Sudoeste 0 -- -- 36
2019-06-01 22:00:00 25.5 5 Sudoeste 12 Sur 0 -- -- 32
2019-06-01 21:00:00 29.8 9 Sur 18 Sudeste 0 -- -- 26
2019-06-01 20:00:00 32.6 5 Nordeste 15 Este 0 -- -- 20
2019-06-01 19:00:00 32.8 7 Nordeste 25 Nordeste 0 -- -- 18
2019-06-01 18:00:00 33.2 10 Nordeste 24 Nordeste 0 -- -- 19
2019-06-01 17:00:00 33.1 6 Sudeste 27 Sudeste 0 -- -- 19
2019-06-01 16:00:00 32.7 12 Este 27 Este 0 -- -- 20
2019-06-01 15:00:00 32.2 9 Este 28 Sudeste 0 -- -- 23
2019-06-01 14:00:00 31.8 14 Este 27 Este 0 -- -- 23
2019-06-01 13:00:00 31.2 9 Este 21 Este 0 -- -- 24
2019-06-01 12:00:00 29.8 8 Sudeste 18 Nordeste 0 -- -- 25
2019-06-01 11:00:00 27 6 Sur 19 Sur 0 -- -- 30
2019-06-01 10:00:00 24.4 13 Sur 21 Sur 0 -- -- 32
2019-06-01 09:00:00 20.4 3 Sudeste 5 Este 0 -- -- 42
2019-06-01 08:00:00 12.3 0 Calma 4 Noroeste 0 -- -- 71
2019-06-01 07:00:00 11 0 Calma 4 Noroeste 0 -- -- 66
2019-06-01 06:00:00 11.2 2 Noroeste 6 Noroeste 0 -- -- 68
2019-06-01 05:00:00 12 3 Noroeste 5 Noroeste 0 -- -- 64
2019-06-01 04:00:00 14.3 5 Norte 8 Oeste 0 -- -- 54
2019-06-01 03:00:00 17.4 5 Sur 10 Sur 0 -- -- 43
2019-06-01 02:00:00 17.7 4 Sudoeste 10 Sudoeste 0 -- -- 43
2019-06-01 01:00:00 17.9 5 Sudoeste 9 Sudoeste 0 -- -- 44
2019-06-01 00:00:00 18.8 3 Sur 6 Sudoeste 0 -- -- 43
2019-05-31 23:00:00 20.1 4 Sur 9 Sudoeste 0 -- -- 43
2019-05-31 22:00:00 24.5 5 Sudoeste 13 Sur 0 -- -- 35
2019-05-31 21:00:00 28.8 6 Sur 17 Sudoeste 0 -- -- 27
2019-05-31 20:00:00 31.5 10 Este 19 Este 0 -- -- 19
2019-05-31 19:00:00 32.1 11 Nordeste 26 Nordeste 0 -- -- 19
2019-05-31 18:00:00 32.5 13 Este 28 Nordeste 0 -- -- 18
2019-05-31 17:00:00 32.2 17 Nordeste 36 Nordeste 0 -- -- 20
2019-05-31 16:00:00 32.6 12 Sudeste 31 Este 0 -- -- 22
2019-05-31 15:00:00 32 13 Sudeste 29 Sudeste 0 -- -- 21
2019-05-31 14:00:00 30.6 16 Este 37 Este 0 -- -- 23
2019-05-31 13:00:00 29.5 18 Este 32 Este 0 -- -- 24
2019-05-31 12:00:00 27.5 14 Este 28 Nordeste 0 -- -- 27
2019-05-31 11:00:00 24.6 9 Este 21 Este 0 -- -- 35
2019-05-31 10:00:00 22.7 8 Este 15 Este 0 -- -- 36
2019-05-31 09:00:00 19.3 3 Norte 6 Norte 0 -- -- 43
2019-05-31 08:00:00 14.4 0 Calma 5 Este 0 -- -- 55
2019-05-31 07:00:00 14.7 0 Calma 21 Sudeste 0 -- -- 46
2019-05-31 06:00:00 16 9 Sur 19 Sur 0 -- -- 42
2019-05-31 05:00:00 15.1 5 Sur 10 Sudoeste 0 -- -- 59
2019-05-31 04:00:00 16 5 Sudoeste 15 Sur 0 -- -- 60
2019-05-31 03:00:00 17.6 7 Sur 16 Sur 0 -- -- 55
2019-05-31 02:00:00 19.2 7 Sur 18 Sur 0 -- -- 51
2019-05-31 01:00:00 18 7 Sur 14 Sur 0 -- -- 54
2019-05-31 00:00:00 19 4 Sur 8 Oeste 0 -- -- 52
2019-05-30 23:00:00 20.9 4 Sudoeste 8 Sudoeste 0 -- -- 47
2019-05-30 22:00:00 24.3 4 Sudoeste 14 Nordeste 0 -- -- 38
2019-05-30 21:00:00 29.5 7 Nordeste 24 Nordeste 0 -- -- 20
2019-05-30 20:00:00 30.9 12 Nordeste 26 Este 0 -- -- 18
2019-05-30 19:00:00 31.5 12 Nordeste 28 Este 0 -- -- 18
2019-05-30 18:00:00 31.7 11 Nordeste 25 Este 0 -- -- 18
2019-05-30 17:00:00 31.5 11 Nordeste 28 Nordeste 0 -- -- 20
2019-05-30 16:00:00 31.3 12 Este 29 Este 0 -- -- 20
2019-05-30 15:00:00 30.7 14 Sudeste 30 Este 0 -- -- 24
2019-05-30 14:00:00 29.4 10 Este 27 Sudeste 0 -- -- 24
2019-05-30 13:00:00 28.5 13 Este 36 Este 0 -- -- 26
2019-05-30 12:00:00 27.5 15 Este 30 Este 0 -- -- 26
2019-05-30 11:00:00 25.7 12 Este 23 Este 0 -- -- 29
2019-05-30 10:00:00 23.3 13 Este 22 Este 0 -- -- 33
2019-05-30 09:00:00 20 10 Este 19 Este 0 -- -- 39
2019-05-30 08:00:00 16.1 4 Este 9 Este 0 -- -- 46
2019-05-30 07:00:00 15.9 5 Este 15 Este 0 -- -- 44
2019-05-30 06:00:00 10.9 0 Calma 5 Este 0 -- -- 62
2019-05-30 05:00:00 12.2 0 Calma 11 Sudeste 0 -- -- 56
2019-05-30 04:00:00 15 0 Calma 10 Sudeste 0 -- -- 44
2019-05-30 03:00:00 17.2 3 Sudeste 13 Este 0 -- -- 38
2019-05-30 02:00:00 18.5 0 Calma 14 Sudeste 0 -- -- 35
2019-05-30 01:00:00 19.5 4 Este 10 Nordeste 0 -- -- 34
2019-05-30 00:00:00 21.1 4 Nordeste 11 Nordeste 0 -- -- 30
2019-05-29 23:00:00 22.7 5 Nordeste 14 Nordeste 0 -- -- 28
2019-05-29 22:00:00 24.6 7 Nordeste 20 Este 0 -- -- 26
2019-05-29 21:00:00 27.3 11 Nordeste 26 Nordeste 0 -- -- 23
2019-05-29 20:00:00 28.5 12 Nordeste 29 Nordeste 0 -- -- 22
2019-05-29 19:00:00 29.1 15 Nordeste 30 Nordeste 0 -- -- 22
2019-05-29 18:00:00 29.6 15 Este 32 Nordeste 0 -- -- 21
2019-05-29 17:00:00 29.3 17 Nordeste 32 Nordeste 0 -- -- 22
2019-05-29 16:00:00 29.2 15 Nordeste 32 Este 0 -- -- 24
2019-05-29 15:00:00 28.8 14 Este 32 Este 0 -- -- 24
2019-05-29 14:00:00 28.4 17 Este 33 Nordeste 0 -- -- 25
2019-05-29 13:00:00 27 15 Este 33 Este 0 -- -- 26
2019-05-29 12:00:00 25.7 19 Este 33 Nordeste 0 -- -- 27
2019-05-29 11:00:00 23.7 21 Este 34 Este 0 -- -- 30
2019-05-29 10:00:00 21.9 16 Este 29 Este 0 -- -- 33
2019-05-29 09:00:00 19.1 10 Este 29 Este 0 -- -- 36
2019-05-29 08:00:00 16.8 10 Nordeste 19 Nordeste 0 -- -- 39
2019-05-29 07:00:00 16.2 7 Norte 20 Nordeste 0 -- -- 39
2019-05-29 06:00:00 17.5 10 Este 27 Este 0 -- -- 36
2019-05-29 05:00:00 16.6 8 Norte 16 Norte 0 -- -- 40
2019-05-29 04:00:00 16.6 6 Norte 12 Nordeste 0 -- -- 41
2019-05-29 03:00:00 17.2 6 Norte 13 Norte 0 -- -- 40
2019-05-29 02:00:00 18.6 11 Norte 18 Nordeste 0 -- -- 37
2019-05-29 01:00:00 19.3 12 Norte 19 Norte 0 -- -- 35
2019-05-29 00:00:00 17.4 9 Norte 12 Norte 0 -- -- 40
2019-05-28 23:00:00 20.1 7 Noroeste 11 Norte 0 -- -- 36
2019-05-28 22:00:00 23.7 8 Norte 24 Nordeste 0 -- -- 28
2019-05-28 21:00:00 27.4 12 Norte 28 Norte 0 -- -- 25
2019-05-28 20:00:00 29.4 10 Norte 24 Nordeste 0 -- -- 28
2019-05-28 19:00:00 30 11 Nordeste 29 Norte 0 -- -- 27
2019-05-28 18:00:00 30.2 13 Nordeste 28 Norte 0 -- -- 27
2019-05-28 17:00:00 30.1 13 Norte 29 Norte 0 -- -- 29
2019-05-28 16:00:00 30.1 10 Nordeste 26 Nordeste 0 -- -- 30
2019-05-28 15:00:00 29.6 11 Nordeste 27 Norte 0 -- -- 29
2019-05-28 14:00:00 28.1 11 Noroeste 27 Nordeste 0 -- -- 36
2019-05-28 13:00:00 27.2 11 Norte 24 Norte 0 -- -- 35
2019-05-28 12:00:00 26.2 9 Norte 16 Noroeste 0 -- -- 41
2019-05-28 11:00:00 24.5 6 Este 13 Este 0 -- -- 46
2019-05-28 10:00:00 21.7 5 Este 12 Este 0 -- -- 55
2019-05-28 09:00:00 17.9 4 Nordeste 8 Norte 0 -- -- 74
2019-05-28 08:00:00 11.3 0 Calma 4 Noroeste 0 -- -- 95
2019-05-28 07:00:00 10.6 0 Calma 2 Norte 0 -- -- 92
2019-05-28 06:00:00 11.5 0 Calma 5 Sudeste 0 -- -- 90
2019-05-28 05:00:00 12.6 4 Noroeste 8 Noroeste 0 -- -- 90
2019-05-28 04:00:00 13.7 2 Sudoeste 9 Noroeste 0 -- -- 83
2019-05-28 03:00:00 14.7 3 Noroeste 17 Oeste 0 -- -- 78
2019-05-28 02:00:00 16.1 8 Noroeste 17 Oeste 0 -- -- 72
2019-05-28 01:00:00 16.9 4 Noroeste 16 Noroeste 0 -- -- 64
2019-05-28 00:00:00 19.4 8 Noroeste 24 Norte 0 -- -- 54
2019-05-27 23:00:00 20.7 9 Noroeste 19 Noroeste 0 -- -- 48
2019-05-27 22:00:00 23.4 9 Noroeste 30 Noroeste 0 -- -- 43
2019-05-27 21:00:00 26.2 13 Norte 29 Noroeste 0 -- -- 38
2019-05-27 20:00:00 28.2 14 Noroeste 33 Noroeste 0 -- -- 34
2019-05-27 19:00:00 29.5 15 Norte 29 Noroeste 0 -- -- 30
2019-05-27 18:00:00 30.2 16 Noroeste 29 Noroeste 0 -- -- 29
2019-05-27 17:00:00 30.4 12 Noroeste 29 Noroeste 0 -- -- 27
2019-05-27 16:00:00 30.4 14 Norte 28 Noroeste 0 -- -- 28
2019-05-27 15:00:00 29.9 14 Noroeste 31 Norte 0 -- -- 31
2019-05-27 14:00:00 29.3 13 Oeste 27 Oeste 0 -- -- 32
2019-05-27 13:00:00 28.7 6 Norte 22 Noroeste 0 -- -- 29
2019-05-27 12:00:00 28 9 Norte 17 Norte 0 -- -- 30
2019-05-27 11:00:00 26.8 6 Norte 13 Noroeste 0 -- -- 31
2019-05-27 10:00:00 23.3 3 Sudeste 6 Sudeste 0 -- -- 41
2019-05-27 09:00:00 18.8 3 Sudeste 9 Noroeste 0 -- -- 51
2019-05-27 08:00:00 12.9 5 Noroeste 8 Noroeste 0 -- -- 71
2019-05-27 07:00:00 11.1 4 Noroeste 8 Noroeste 0 -- -- 72
2019-05-27 06:00:00 11.4 4 Oeste 9 Noroeste 0 -- -- 69
2019-05-27 05:00:00 12.7 7 Noroeste 9 Norte 0 -- -- 64
2019-05-27 04:00:00 14.1 6 Noroeste 11 Norte 0 -- -- 58
2019-05-27 03:00:00 15 8 Noroeste 10 Noroeste 0 -- -- 54
2019-05-27 02:00:00 15.6 8 Noroeste 11 Noroeste 0 -- -- 53
2019-05-27 01:00:00 19.3 9 Noroeste 13 Norte 0 -- -- 40
2019-05-27 00:00:00 19.4 9 Noroeste 14 Noroeste 0 -- -- 41
2019-05-26 23:00:00 20.5 8 Noroeste 12 Noroeste 0 -- -- 38
2019-05-26 22:00:00 22.9 8 Norte 20 Norte 0 -- -- 34
2019-05-26 21:00:00 26.4 10 Norte 27 Norte 0 -- -- 29
2019-05-26 20:00:00 27.7 13 Nordeste 24 Nordeste 0 -- -- 28
2019-05-26 19:00:00 28.2 11 Norte 33 Nordeste 0 -- -- 27
2019-05-26 18:00:00 28.4 10 Norte 31 Nordeste 0 -- -- 28
2019-05-26 17:00:00 28.2 10 Norte 28 Norte 0 -- -- 31
2019-05-26 16:00:00 27.7 10 Nordeste 24 Nordeste 0 -- -- 30
2019-05-26 15:00:00 26.6 9 Nordeste 24 Nordeste 0 -- -- 30
2019-05-26 14:00:00 26.2 10 Nordeste 22 Norte 0 -- -- 30
2019-05-26 13:00:00 25.4 10 Nordeste 26 Nordeste 0 -- -- 31
2019-05-26 12:00:00 24.5 11 Nordeste 22 Este 0 -- -- 33
2019-05-26 11:00:00 23.7 12 Este 20 Este 0 -- -- 35
2019-05-26 10:00:00 21 11 Nordeste 17 Nordeste 0 -- -- 37
2019-05-26 09:00:00 18.2 7 Nordeste 15 Nordeste 0 -- -- 42
2019-05-26 08:00:00 14 5 Norte 11 Nordeste 0 -- -- 56
2019-05-26 07:00:00 9.2 3 Noroeste 5 Noroeste 0 -- -- 74
2019-05-26 06:00:00 10.3 3 Noroeste 6 Norte 0 -- -- 69
2019-05-26 05:00:00 13.6 6 Norte 10 Nordeste 0 -- -- 55
2019-05-26 04:00:00 13.7 7 Norte 12 Norte 0 -- -- 52
2019-05-26 03:00:00 11.3 7 Noroeste 9 Noroeste 0 -- -- 65
2019-05-26 02:00:00 14.4 5 Noroeste 10 Norte 0 -- -- 51
2019-05-26 01:00:00 16.2 9 Noroeste 11 Noroeste 0 -- -- 44
2019-05-26 00:00:00 16.6 9 Norte 12 Noroeste 0 -- -- 43
2019-05-25 23:00:00 16.3 8 Noroeste 11 Noroeste 0 -- -- 47
2019-05-25 22:00:00 19.8 5 Noroeste 12 Norte 0 -- -- 38
2019-05-25 21:00:00 23.8 9 Norte 22 Nordeste 0 -- -- 28
2019-05-25 20:00:00 25 11 Nordeste 27 Nordeste 0 -- -- 25
2019-05-25 19:00:00 25.2 14 Nordeste 27 Nordeste 0 -- -- 27
2019-05-25 18:00:00 25.7 11 Nordeste 28 Este 0 -- -- 28
2019-05-25 17:00:00 25.4 12 Nordeste 31 Este 0 -- -- 28
2019-05-25 16:00:00 25.1 11 Nordeste 31 Nordeste 0 -- -- 28
2019-05-25 15:00:00 25 11 Este 32 Nordeste 0 -- -- 29
2019-05-25 14:00:00 24 10 Este 31 Norte 0 -- -- 31
2019-05-25 13:00:00 23 13 Nordeste 24 Nordeste 0 -- -- 33
2019-05-25 12:00:00 22.2 8 Este 32 Nordeste 0 -- -- 39
2019-05-25 11:00:00 20.7 17 Este 30 Nordeste 0 -- -- 47
2019-05-25 10:00:00 18.4 17 Nordeste 32 Nordeste 0 -- -- 54
2019-05-25 09:00:00 17 5 Este 13 Nordeste 0 -- -- 55
2019-05-25 08:00:00 12.6 3 Nordeste 8 Nordeste 0 -- -- 59
2019-05-25 07:00:00 13.2 4 Norte 11 Norte 0 -- -- 53
2019-05-25 06:00:00 14.3 5 Norte 15 Norte 0 -- -- 50
2019-05-25 05:00:00 14.5 6 Norte 12 Norte 0 -- -- 48
2019-05-25 04:00:00 15.6 6 Norte 14 Norte 0 -- -- 44
2019-05-25 03:00:00 16.4 9 Norte 18 Norte 0 -- -- 42
2019-05-25 02:00:00 17.5 7 Norte 19 Norte 0 -- -- 40
2019-05-25 01:00:00 18.4 10 Norte 21 Norte 0 -- -- 37
2019-05-25 00:00:00 18.8 11 Norte 19 Norte 0 -- -- 37
2019-05-24 23:00:00 19.1 12 Norte 18 Norte 0 -- -- 37
2019-05-24 22:00:00 19.9 10 Norte 14 Norte 0 -- -- 34
2019-05-24 21:00:00 22.5 10 Norte 24 Noroeste 0 -- -- 30
2019-05-24 20:00:00 23.8 17 Norte 33 Norte 0 -- -- 28
2019-05-24 19:00:00 25.2 18 Norte 33 Norte 0 -- -- 35
2019-05-24 18:00:00 25.9 15 Norte 32 Norte 0 -- -- 36
2019-05-24 17:00:00 25.4 18 Norte 36 Norte 0 -- -- 33
2019-05-24 16:00:00 24.6 16 Norte 31 Norte 0 -- -- 35
2019-05-24 15:00:00 23.4 14 Norte 30 Noroeste 0 -- -- 37
2019-05-24 14:00:00 22.2 16 Noroeste 32 Noroeste 0 -- -- 40
2019-05-24 13:00:00 20.7 12 Norte 27 Norte 0 -- -- 48
2019-05-24 12:00:00 19.2 14 Norte 25 Noroeste 0 -- -- 51
2019-05-24 11:00:00 16.7 14 Norte 29 Norte 0 -- -- 57
2019-05-24 10:00:00 15 17 Norte 29 Norte 0 -- -- 63
2019-05-24 09:00:00 11.8 9 Noroeste 20 Noroeste 0 -- -- 78
2019-05-24 08:00:00 9.8 6 Noroeste 16 Noroeste 0 -- -- 87
2019-05-24 07:00:00 9 8 Noroeste 15 Noroeste 0 -- -- 90
2019-05-24 06:00:00 9.3 10 Noroeste 18 Noroeste 0 -- -- 89
2019-05-24 05:00:00 9.7 8 Noroeste 12 Noroeste 0 -- -- 90
2019-05-24 04:00:00 11 4 Noroeste 18 Oeste 0 -- -- 88
2019-05-24 03:00:00 12 5 Noroeste 11 Noroeste 0 -- -- 89
2019-05-24 02:00:00 13.5 5 Noroeste 21 Noroeste 0 -- -- 83
2019-05-24 01:00:00 14.9 5 Noroeste 27 Noroeste 0 -- -- 78
2019-05-24 00:00:00 16.4 10 Noroeste 27 Noroeste 0 -- -- 72
2019-05-23 23:00:00 18 13 Noroeste 24 Norte 0 -- -- 62
2019-05-23 22:00:00 19.7 10 Noroeste 28 Noroeste 0 -- -- 41
2019-05-23 21:00:00 21.7 8 Noroeste 24 Noroeste 0 -- -- 37
2019-05-23 20:00:00 24.1 14 Noroeste 28 Noroeste 0 -- -- 32
2019-05-23 19:00:00 24.8 13 Noroeste 29 Noroeste 0 -- -- 31
2019-05-23 18:00:00 25.2 13 Noroeste 26 Oeste 0 -- -- 26
2019-05-23 17:00:00 26.5 9 Noroeste 29 Noroeste 0 -- -- 29
2019-05-23 16:00:00 27.1 11 Oeste 25 Oeste 0 -- -- 29
2019-05-23 15:00:00 26.4 9 Oeste 25 Noroeste 0 -- -- 33
2019-05-23 14:00:00 25.8 10 Noroeste 21 Noroeste 0 -- -- 38
2019-05-23 13:00:00 25.2 8 Oeste 19 Noroeste 0 -- -- 40
2019-05-23 12:00:00 24.2 7 Noroeste 17 Noroeste 0 -- -- 42
2019-05-23 11:00:00 23.4 9 Norte 17 Noroeste 0 -- -- 43
2019-05-23 10:00:00 21.7 2 Este 6 Sur 0 -- -- 44
2019-05-23 09:00:00 15.9 0 Calma 2 Este 0 -- -- 78
2019-05-23 08:00:00 10.5 0 Calma 6 Norte 0 -- -- 92
2019-05-23 07:00:00 9.8 0 Calma 4 Noroeste 0 -- -- 90
2019-05-23 06:00:00 11.1 0 Calma 5 Noroeste 0 -- -- 86
2019-05-23 05:00:00 12.7 0 Calma 8 Noroeste 0 -- -- 82
2019-05-23 04:00:00 13.6 3 Noroeste 12 Oeste 0 -- -- 81
2019-05-23 03:00:00 15 5 Noroeste 13 Noroeste 0 -- -- 79
2019-05-23 02:00:00 15.6 0 Calma 13 Noroeste 0 -- -- 72
2019-05-23 01:00:00 17.3 5 Norte 17 Noroeste 0 -- -- 60
2019-05-23 00:00:00 19.8 5 Sudoeste 17 Sudoeste 0 -- -- 46
2019-05-22 23:00:00 20.3 5 Sudoeste 13 Sur 0 -- -- 41
2019-05-22 22:00:00 21.5 6 Oeste 10 Noroeste 0 -- -- 44
2019-05-22 21:00:00 24.8 3 Oeste 13 Noroeste 0 -- -- 39
2019-05-22 20:00:00 26.9 5 Sudoeste 11 Oeste 0 -- -- 33
2019-05-22 19:00:00 26.9 4 Sudoeste 15 Sur 0 -- -- 31
2019-05-22 18:00:00 26 5 Sur 13 Sudoeste 0 -- -- 33
2019-05-22 17:00:00 26.7 4 Nordeste 12 Noroeste 0 -- -- 34
2019-05-22 16:00:00 25.9 5 Sur 19 Sur 0 -- -- 34
2019-05-22 15:00:00 26.7 8 Sudoeste 21 Sur 0 -- -- 32
2019-05-22 14:00:00 26 7 Sur 18 Este 0 -- -- 35
2019-05-22 13:00:00 25.1 5 Este 18 Sudeste 0 -- -- 39
2019-05-22 12:00:00 24.2 8 Sudeste 17 Sudeste 0 -- -- 43
2019-05-22 11:00:00 22.6 6 Sur 19 Sudeste 0 -- -- 48
2019-05-22 10:00:00 20.7 6 Este 12 Este 0 -- -- 58
2019-05-22 09:00:00 15.1 0 Calma 3 Sudeste 0 -- -- 86
2019-05-22 08:00:00 9.2 0 Calma 2 Noroeste 0 -- -- 98
2019-05-22 07:00:00 7.7 2 Noroeste 3 Noroeste 0 -- -- 95
2019-05-22 06:00:00 7.6 0 Calma 4 Norte 0 -- -- 94
2019-05-22 05:00:00 8.6 0 Calma 2 Noroeste 0 -- -- 92
2019-05-22 04:00:00 10.2 0 Calma 5 Oeste 0 -- -- 89
2019-05-22 03:00:00 12 3 Oeste 9 Oeste 0 -- -- 86
2019-05-22 02:00:00 13.4 0 Calma 19 Oeste 0 -- -- 79
2019-05-22 01:00:00 15 11 Noroeste 25 Noroeste 0 -- -- 75
2019-05-22 00:00:00 15.9 10 Noroeste 21 Noroeste 0 -- -- 71